createdAt,value
2023-01-21T00:00:38.192Z,84.19
2023-01-21T00:03:48.470Z,84.77
2023-01-21T00:06:54.602Z,84.92
2023-01-21T00:10:01.572Z,85.32
2023-01-21T00:13:07.810Z,85.24
2023-01-21T00:16:15.987Z,85.23
2023-01-21T00:19:24.860Z,84.97
2023-01-21T00:22:31.907Z,84.97
2023-01-21T00:25:37.923Z,84.94
2023-01-21T00:28:46.868Z,85.32
2023-01-21T00:31:53.678Z,85.27
2023-01-21T00:35:03.138Z,85.79
2023-01-21T00:38:09.224Z,85.52
2023-01-21T00:41:17.669Z,85.65
2023-01-21T00:44:23.845Z,85.71
2023-01-21T00:47:30.707Z,85.76
2023-01-21T00:50:39.286Z,85.54
2023-01-21T00:53:46.068Z,85.48
2023-01-21T00:56:51.990Z,85.64
2023-01-21T00:59:58.881Z,85.81
2023-01-21T01:03:04.905Z,86.12
2023-01-21T01:06:18.408Z,85.85
2023-01-21T01:09:24.446Z,85.31
2023-01-21T01:12:32.358Z,84.68
2023-01-21T01:15:40.830Z,84.90
2023-01-21T01:18:48.941Z,84.74
2023-01-21T01:21:57.584Z,84.55
2023-01-21T01:25:04.463Z,84.39
2023-01-21T01:28:10.632Z,84.71
2023-01-21T01:31:20.741Z,84.71
2023-01-21T01:34:27.070Z,84.75
2023-01-21T01:37:36.525Z,84.30
2023-01-21T01:40:43.502Z,84.58
2023-01-21T01:43:59.380Z,84.58
2023-01-21T01:47:08.238Z,84.27
2023-01-21T01:50:21.095Z,84.55
2023-01-21T01:53:33.608Z,84.35
2023-01-21T01:56:48.113Z,84.37
2023-01-21T01:59:54.901Z,84.62
2023-01-21T02:03:14.176Z,84.37
2023-01-21T02:06:22.365Z,84.41
2023-01-21T02:09:31.855Z,84.14
2023-01-21T02:12:41.693Z,84.05
2023-01-21T02:16:15.882Z,84.37
2023-01-21T02:20:04.184Z,84.44
2023-01-21T02:23:23.264Z,84.13
2023-01-21T02:27:18.055Z,84.53
2023-01-21T02:31:06.701Z,84.56
2023-01-21T02:34:30.538Z,84.91
2023-01-21T02:37:51.239Z,84.58
2023-01-21T02:41:13.907Z,84.79
2023-01-21T02:44:38.194Z,85.06
2023-01-21T02:48:06.202Z,84.08
2023-01-21T02:51:16.515Z,84.13
2023-01-21T02:54:57.025Z,84.22
2023-01-21T02:58:10.762Z,83.95
2023-01-21T03:01:40.081Z,83.73
2023-01-21T03:05:12.100Z,84.05
2023-01-21T03:08:30.620Z,83.77
2023-01-21T03:11:37.207Z,83.79
2023-01-21T03:15:10.997Z,83.59
2023-01-21T03:18:29.665Z,83.53
2023-01-21T03:21:39.642Z,83.43
2023-01-21T03:24:54.625Z,83.51
2023-01-21T03:28:09.708Z,83.70
2023-01-21T03:31:26.898Z,83.83
2023-01-21T03:34:44.809Z,83.56
2023-01-21T03:37:57.864Z,83.54
2023-01-21T03:41:17.668Z,84.00
2023-01-21T03:44:24.334Z,84.12
2023-01-21T03:47:37.825Z,83.74
2023-01-21T03:50:55.801Z,83.90
2023-01-21T03:54:03.494Z,83.49
2023-01-21T03:57:12.116Z,83.56
2023-01-21T04:00:20.928Z,83.79
2023-01-21T04:03:27.317Z,83.92
2023-01-21T04:06:34.268Z,84.07
2023-01-21T04:09:40.357Z,83.27
2023-01-21T04:12:49.843Z,83.60
2023-01-21T04:15:55.811Z,83.88
2023-01-21T04:19:02.687Z,83.77
2023-01-21T04:22:08.757Z,83.96
2023-01-21T04:25:15.688Z,84.17
2023-01-21T04:28:24.605Z,84.05
2023-01-21T04:31:31.543Z,84.08
2023-01-21T04:34:37.901Z,84.35
2023-01-21T04:37:44.709Z,84.50
2023-01-21T04:40:50.767Z,84.21
2023-01-21T04:44:00.336Z,84.62
2023-01-21T04:47:06.398Z,84.09
2023-01-21T04:50:17.811Z,83.93
2023-01-21T04:53:23.951Z,83.90
2023-01-21T04:56:30.893Z,84.12
2023-01-21T04:59:39.502Z,84.10
2023-01-21T05:02:46.321Z,83.95
2023-01-21T05:05:52.420Z,84.06
2023-01-21T05:08:59.291Z,83.74
2023-01-21T05:12:05.317Z,84.19
2023-01-21T05:15:15.780Z,83.64
2023-01-21T05:18:21.737Z,83.55
2023-01-21T05:21:28.701Z,84.09
2023-01-21T05:24:34.836Z,84.11
2023-01-21T05:27:41.714Z,83.88
2023-01-21T05:30:50.340Z,83.84
2023-01-21T05:33:57.300Z,83.64
2023-01-21T05:37:03.232Z,84.42
2023-01-21T05:40:12.319Z,84.55
2023-01-21T05:43:18.460Z,84.56
2023-01-21T05:46:28.202Z,84.21
2023-01-21T05:49:34.272Z,84.39
2023-01-21T05:52:42.043Z,84.37
2023-01-21T05:55:48.123Z,83.90
2023-01-21T05:58:54.952Z,84.35
2023-01-21T06:02:03.571Z,84.11
2023-01-21T06:05:11.508Z,84.32
2023-01-21T06:08:17.542Z,83.61
2023-01-21T06:11:24.435Z,83.86
2023-01-21T06:14:30.466Z,83.65
2023-01-21T06:17:42.394Z,83.36
2023-01-21T06:20:48.367Z,83.43
2023-01-21T06:23:55.169Z,83.65
2023-01-21T06:27:01.175Z,83.65
2023-01-21T06:30:10.810Z,83.43
2023-01-21T06:33:19.407Z,83.54
2023-01-21T06:36:26.310Z,83.08
2023-01-21T06:39:32.265Z,83.20
2023-01-21T06:42:39.117Z,83.38
2023-01-21T06:45:45.379Z,83.26
2023-01-21T06:48:55.029Z,83.33
2023-01-21T06:52:01.076Z,84.02
2023-01-21T06:55:09.446Z,83.66
2023-01-21T06:58:15.558Z,83.89
2023-01-21T07:01:22.562Z,83.25
2023-01-21T07:04:31.919Z,83.00
2023-01-21T07:07:39.620Z,83.27
2023-01-21T07:10:47.744Z,83.37
2023-01-21T07:13:54.842Z,83.30
2023-01-21T07:17:00.922Z,82.96
2023-01-21T07:20:15.050Z,83.04
2023-01-21T07:23:21.375Z,83.06
2023-01-21T07:26:28.371Z,82.95
2023-01-21T07:29:34.421Z,83.14
2023-01-21T07:32:41.285Z,82.88
2023-01-21T07:35:50.271Z,83.16
2023-01-21T07:38:57.916Z,83.12
2023-01-21T07:42:04.308Z,83.27
2023-01-21T07:45:12.990Z,83.28
2023-01-21T07:48:19.044Z,83.61
2023-01-21T07:51:28.643Z,83.39
2023-01-21T07:54:35.248Z,82.86
2023-01-21T07:57:42.274Z,82.77
2023-01-21T08:00:48.369Z,82.73
2023-01-21T08:03:55.198Z,82.83
2023-01-21T08:07:11.971Z,82.06
2023-01-21T08:10:22.447Z,82.65
2023-01-21T08:13:29.233Z,82.19
2023-01-21T08:16:36.135Z,82.08
2023-01-21T08:19:42.177Z,81.81
2023-01-21T08:22:51.625Z,82.40
2023-01-21T08:25:58.357Z,82.33
2023-01-21T08:29:05.270Z,81.78
2023-01-21T08:32:11.530Z,81.75
2023-01-21T08:35:18.825Z,81.91
2023-01-21T08:38:27.648Z,81.84
2023-01-21T08:41:35.151Z,81.61
2023-01-21T08:44:41.148Z,81.76
2023-01-21T08:47:48.102Z,81.68
2023-01-21T08:50:54.238Z,81.58
2023-01-21T08:54:05.376Z,81.34
2023-01-21T08:57:11.632Z,81.50
2023-01-21T09:00:19.978Z,81.50
2023-01-21T09:03:27.322Z,81.25
2023-01-21T09:06:34.353Z,81.60
2023-01-21T09:09:43.027Z,81.55
2023-01-21T09:12:49.999Z,81.19
2023-01-21T09:15:56.512Z,82.49
2023-01-21T09:19:04.091Z,81.18
2023-01-21T09:22:10.440Z,81.24
2023-01-21T09:25:23.088Z,80.92
2023-01-21T09:28:30.178Z,81.27
2023-01-21T09:31:37.300Z,81.02
2023-01-21T09:34:43.404Z,80.44
2023-01-21T09:37:50.264Z,80.46
2023-01-21T09:41:07.592Z,79.68
2023-01-21T09:44:27.933Z,79.65
2023-01-21T09:47:43.165Z,79.17
2023-01-21T09:50:56.573Z,79.57
2023-01-21T09:54:03.817Z,79.71
2023-01-21T09:57:37.213Z,79.86
2023-01-21T10:00:55.709Z,79.28
2023-01-21T10:04:22.416Z,79.05
2023-01-21T10:07:37.735Z,78.72
2023-01-21T10:10:54.337Z,79.60
2023-01-21T10:14:28.026Z,79.84
2023-01-21T10:17:54.963Z,79.62
2023-01-21T10:21:09.716Z,79.63
2023-01-21T10:24:24.225Z,79.79
2023-01-21T10:27:38.392Z,79.94
2023-01-21T10:30:55.020Z,79.72
2023-01-21T10:34:01.097Z,78.80
2023-01-21T10:37:28.204Z,78.64
2023-01-21T10:40:49.347Z,78.83
2023-01-21T10:44:10.849Z,78.25
2023-01-21T10:47:36.729Z,78.69
2023-01-21T10:50:57.465Z,78.58
2023-01-21T10:54:21.578Z,79.00
2023-01-21T10:57:57.136Z,80.20
2023-01-21T11:01:10.910Z,79.28
2023-01-21T11:04:25.768Z,77.90
2023-01-21T11:07:43.528Z,78.38
2023-01-21T11:10:56.349Z,78.59
2023-01-21T11:14:02.765Z,78.36
2023-01-21T11:17:10.158Z,78.35
2023-01-21T11:20:28.313Z,78.10
2023-01-21T11:23:39.470Z,78.30
2023-01-21T11:26:55.617Z,78.71
2023-01-21T11:30:02.803Z,78.86
2023-01-21T11:33:23.452Z,78.02
2023-01-21T11:36:33.083Z,78.09
2023-01-21T11:39:53.759Z,77.96
2023-01-21T11:43:00.886Z,77.90
2023-01-21T11:46:29.674Z,77.10
2023-01-21T11:49:36.707Z,78.25
2023-01-21T11:52:45.826Z,77.51
2023-01-21T11:55:57.299Z,77.30
2023-01-21T11:59:03.672Z,76.83
2023-01-21T12:02:22.180Z,76.97
2023-01-21T12:05:39.165Z,76.93
2023-01-21T12:08:55.600Z,76.38
2023-01-21T12:12:33.168Z,76.89
2023-01-21T12:16:14.488Z,76.86
2023-01-21T12:19:57.131Z,77.32
2023-01-21T12:23:41.106Z,76.16
2023-01-21T12:27:04.552Z,76.64
2023-01-21T12:30:32.755Z,76.29
2023-01-21T12:33:58.184Z,76.95
2023-01-21T12:37:17.283Z,76.39
2023-01-21T12:40:34.167Z,76.66
2023-01-21T12:43:49.881Z,75.98
2023-01-21T12:47:06.005Z,76.85
2023-01-21T12:50:36.285Z,76.81
2023-01-21T12:53:52.287Z,76.55
2023-01-21T12:57:16.790Z,77.00
2023-01-21T13:00:32.887Z,76.29
2023-01-21T13:03:58.286Z,76.99
2023-01-21T13:07:22.539Z,77.80
2023-01-21T13:10:38.982Z,77.73
2023-01-21T13:13:57.348Z,77.04
2023-01-21T13:17:17.864Z,76.97
2023-01-21T13:20:27.018Z,76.88
2023-01-21T13:23:46.478Z,76.51
2023-01-21T13:27:10.144Z,75.61
2023-01-21T13:30:32.287Z,76.33
2023-01-21T13:33:59.600Z,76.03
2023-01-21T13:37:27.004Z,76.02
2023-01-21T13:40:50.610Z,75.88
2023-01-21T13:44:41.732Z,76.31
2023-01-21T13:48:28.663Z,75.12
2023-01-21T13:52:03.012Z,75.64
2023-01-21T13:55:34.419Z,76.29
2023-01-21T13:58:54.647Z,76.69
2023-01-21T14:02:11.857Z,75.88
2023-01-21T14:05:32.899Z,76.28
2023-01-21T14:08:53.086Z,76.58
2023-01-21T14:12:12.746Z,76.42
2023-01-21T14:16:02.470Z,75.92
2023-01-21T14:19:59.198Z,75.92
2023-01-21T14:23:42.692Z,76.39
2023-01-21T14:27:19.500Z,76.32
2023-01-21T14:30:34.517Z,76.97
2023-01-21T14:33:51.478Z,75.96
2023-01-21T14:37:11.621Z,76.36
2023-01-21T14:40:30.062Z,77.16
2023-01-21T14:43:56.933Z,76.92
2023-01-21T14:47:23.482Z,77.58
2023-01-21T14:50:50.121Z,78.05
2023-01-21T14:54:05.061Z,77.26
2023-01-21T14:57:29.891Z,77.47
2023-01-21T15:00:41.351Z,77.04
2023-01-21T15:03:54.140Z,77.00
2023-01-21T15:07:11.504Z,77.56
2023-01-21T15:10:24.538Z,77.21
2023-01-21T15:13:42.169Z,77.28
2023-01-21T15:16:51.924Z,77.89
2023-01-21T15:20:01.560Z,77.98
2023-01-21T15:23:20.486Z,78.12
2023-01-21T15:26:36.690Z,77.22
2023-01-21T15:29:45.295Z,77.03
2023-01-21T15:32:55.629Z,77.51
2023-01-21T15:36:06.241Z,77.86
2023-01-21T15:39:19.279Z,78.02
2023-01-21T15:42:40.241Z,77.96
2023-01-21T15:46:04.599Z,78.79
2023-01-21T15:49:37.962Z,78.52
2023-01-21T15:53:17.079Z,78.38
2023-01-21T15:56:49.047Z,79.17
2023-01-21T16:00:32.819Z,79.49
2023-01-21T16:03:49.156Z,79.93
2023-01-21T16:07:22.476Z,80.70
2023-01-21T16:10:42.457Z,81.03
2023-01-21T16:14:06.361Z,80.72
2023-01-21T16:17:30.645Z,81.48
2023-01-21T16:20:38.867Z,81.12
2023-01-21T16:23:47.974Z,81.47
2023-01-21T16:26:54.963Z,82.17
2023-01-21T16:30:03.028Z,82.60
2023-01-21T16:33:16.145Z,82.36
2023-01-21T16:36:22.614Z,81.80
2023-01-21T16:39:32.206Z,81.24
2023-01-21T16:42:41.578Z,81.70
2023-01-21T16:45:55.175Z,81.48
2023-01-21T16:49:05.010Z,81.02
2023-01-21T16:52:24.681Z,80.62
2023-01-21T16:55:34.878Z,80.73
2023-01-21T16:58:50.808Z,80.66
2023-01-21T17:01:59.980Z,80.30
2023-01-21T17:05:09.128Z,80.11
2023-01-21T17:08:18.924Z,80.89
2023-01-21T17:11:28.864Z,80.68
2023-01-21T17:14:38.213Z,80.65
2023-01-21T17:17:45.775Z,80.58
2023-01-21T17:21:02.839Z,80.27
2023-01-21T17:24:22.663Z,80.98
2023-01-21T17:27:34.275Z,81.39
2023-01-21T17:30:42.070Z,82.84
2023-01-21T17:33:51.066Z,83.42
2023-01-21T17:36:59.874Z,83.83
2023-01-21T17:40:06.632Z,84.34
2023-01-21T17:43:24.815Z,84.98
2023-01-21T17:46:32.798Z,85.21
2023-01-21T17:49:39.936Z,84.84
2023-01-21T17:52:53.998Z,84.92
2023-01-21T17:56:05.222Z,84.61
2023-01-21T17:59:37.911Z,85.09
2023-01-21T18:02:44.930Z,85.30
2023-01-21T18:05:51.615Z,85.99
2023-01-21T18:09:00.775Z,86.61
2023-01-21T18:12:07.503Z,86.61
2023-01-21T18:15:21.134Z,86.56
2023-01-21T18:18:33.760Z,86.63
2023-01-21T18:21:40.725Z,86.50
2023-01-21T18:24:46.767Z,86.62
2023-01-21T18:27:54.892Z,86.41
2023-01-21T18:31:04.297Z,85.71
2023-01-21T18:34:16.481Z,85.77
2023-01-21T18:37:27.975Z,85.45
2023-01-21T18:40:37.396Z,85.28
2023-01-21T18:43:43.499Z,85.71
2023-01-21T18:46:53.364Z,85.65
2023-01-21T18:50:03.174Z,85.29
2023-01-21T18:53:10.357Z,84.55
2023-01-21T18:56:19.048Z,84.05
2023-01-21T18:59:26.266Z,83.24
2023-01-21T19:02:35.089Z,82.42
2023-01-21T19:05:45.944Z,81.68
2023-01-21T19:08:52.096Z,81.86
2023-01-21T19:11:58.997Z,82.43
2023-01-21T19:15:05.598Z,82.17
2023-01-21T19:18:19.693Z,81.03
2023-01-21T19:21:25.910Z,80.22
2023-01-21T19:24:33.767Z,80.69
2023-01-21T19:27:44.971Z,80.36
2023-01-21T19:30:55.739Z,80.39
2023-01-21T19:34:04.491Z,79.46
2023-01-21T19:37:17.294Z,79.27
2023-01-21T19:40:26.234Z,79.69
2023-01-21T19:43:33.535Z,80.02
2023-01-21T19:46:39.807Z,80.00
2023-01-21T19:49:50.504Z,80.32
2023-01-21T19:52:58.027Z,80.26
2023-01-21T19:56:07.298Z,80.16
2023-01-21T19:59:18.461Z,80.31
2023-01-21T20:02:25.511Z,80.36
2023-01-21T20:05:36.650Z,80.84
2023-01-21T20:08:44.183Z,81.25
2023-01-21T20:11:51.430Z,81.42
2023-01-21T20:14:58.585Z,81.96
2023-01-21T20:18:08.098Z,81.88
2023-01-21T20:21:18.330Z,82.28
2023-01-21T20:24:24.584Z,82.60
2023-01-21T20:27:31.681Z,82.48
2023-01-21T20:30:37.948Z,82.41
2023-01-21T20:33:45.045Z,82.86
2023-01-21T20:36:59.602Z,83.04
2023-01-21T20:40:07.061Z,83.14
2023-01-21T20:43:14.113Z,83.68
2023-01-21T20:46:26.514Z,83.23
2023-01-21T20:49:32.888Z,82.83
2023-01-21T20:52:42.551Z,82.89
2023-01-21T20:55:51.619Z,82.31
2023-01-21T20:58:59.019Z,82.67
2023-01-21T21:02:05.403Z,82.52
2023-01-21T21:05:13.579Z,82.79
2023-01-21T21:08:25.229Z,83.05
2023-01-21T21:11:32.197Z,82.61
2023-01-21T21:14:39.029Z,82.09
2023-01-21T21:17:47.210Z,82.55
2023-01-21T21:20:55.423Z,82.45
2023-01-21T21:24:06.780Z,81.92
2023-01-21T21:27:14.872Z,82.18
2023-01-21T21:30:27.741Z,81.69
2023-01-21T21:33:33.986Z,81.95
2023-01-21T21:36:43.773Z,81.71
2023-01-21T21:39:52.622Z,81.53
2023-01-21T21:43:12.852Z,81.25
2023-01-21T21:46:31.402Z,81.81
2023-01-21T21:49:38.676Z,82.34
2023-01-21T21:52:44.849Z,82.01
2023-01-21T21:55:54.451Z,81.64
2023-01-21T21:59:00.858Z,81.39
2023-01-21T22:02:08.630Z,82.20
2023-01-21T22:05:14.822Z,81.50
2023-01-21T22:08:22.022Z,81.35
2023-01-21T22:11:32.832Z,81.58
2023-01-21T22:14:39.961Z,81.82
2023-01-21T22:17:46.879Z,81.58
2023-01-21T22:20:56.554Z,81.67
2023-01-21T22:24:03.967Z,81.58
2023-01-21T22:27:14.180Z,81.49
2023-01-21T22:30:21.309Z,81.77
2023-01-21T22:33:28.338Z,81.55
2023-01-21T22:36:35.461Z,81.62
2023-01-21T22:39:42.627Z,81.53
2023-01-21T22:42:51.599Z,81.94
2023-01-21T22:46:01.352Z,82.62
2023-01-21T22:49:07.713Z,81.86
2023-01-21T22:52:16.931Z,81.46
2023-01-21T22:55:23.157Z,81.54
2023-01-21T22:58:35.777Z,81.53
2023-01-21T23:01:42.232Z,81.69
2023-01-21T23:05:05.321Z,81.90
2023-01-21T23:08:14.501Z,82.07
2023-01-21T23:11:23.632Z,82.15
2023-01-21T23:14:32.454Z,82.71
2023-01-21T23:17:39.512Z,82.65
2023-01-21T23:20:46.253Z,82.96
2023-01-21T23:23:53.969Z,82.49
2023-01-21T23:27:00.200Z,82.41
2023-01-21T23:30:12.769Z,82.14
2023-01-21T23:33:19.096Z,82.38
2023-01-21T23:36:26.977Z,82.03
2023-01-21T23:39:33.177Z,81.59
2023-01-21T23:42:41.128Z,81.64
2023-01-21T23:45:49.918Z,81.49
2023-01-21T23:48:57.236Z,81.94
2023-01-21T23:52:05.362Z,81.69
2023-01-21T23:55:14.907Z,81.71
2023-01-21T23:58:21.003Z,81.75
